sensor_id;sensor_type;location;lat;lon;timestamp;temperature;humidity
24860;DHT22;12936;52.006;4.350;2023-07-08T00:02:28;24.90;99.90
24860;DHT22;12936;52.006;4.350;2023-07-08T00:04:58;24.80;99.90
24860;DHT22;12936;52.006;4.350;2023-07-08T00:07:28;24.80;99.90
24860;DHT22;12936;52.006;4.350;2023-07-08T00:10:17;24.80;99.90
24860;DHT22;12936;52.006;4.350;2023-07-08T00:12:49;24.80;99.90
24860;DHT22;12936;52.006;4.350;2023-07-08T00:15:27;24.80;99.90
24860;DHT22;12936;52.006;4.350;2023-07-08T00:17:57;24.80;99.90
24860;DHT22;12936;52.006;4.350;2023-07-08T00:20:37;24.80;99.90
24860;DHT22;12936;52.006;4.350;2023-07-08T00:23:08;24.70;99.90
24860;DHT22;12936;52.006;4.350;2023-07-08T00:26:00;24.70;99.90
24860;DHT22;12936;52.006;4.350;2023-07-08T00:28:31;24.70;99.90
24860;DHT22;12936;52.006;4.350;2023-07-08T00:31:23;24.70;99.90
24860;DHT22;12936;52.006;4.350;2023-07-08T00:33:57;24.70;99.90
24860;DHT22;12936;52.006;4.350;2023-07-08T00:36:29;24.70;99.90
24860;DHT22;12936;52.006;4.350;2023-07-08T00:39:01;24.70;99.90
24860;DHT22;12936;52.006;4.350;2023-07-08T00:41:34;24.60;99.90
24860;DHT22;12936;52.006;4.350;2023-07-08T00:44:10;24.60;99.90
24860;DHT22;12936;52.006;4.350;2023-07-08T00:46:52;24.60;99.90
24860;DHT22;12936;52.006;4.350;2023-07-08T00:49:34;24.60;99.90
24860;DHT22;12936;52.006;4.350;2023-07-08T00:52:22;24.50;99.90
24860;DHT22;12936;52.006;4.350;2023-07-08T00:55:34;24.50;99.90
24860;DHT22;12936;52.006;4.350;2023-07-08T00:58:06;24.50;99.90
24860;DHT22;12936;52.006;4.350;2023-07-08T01:00:46;24.50;99.90
24860;DHT22;12936;52.006;4.350;2023-07-08T01:03:32;24.50;99.90
24860;DHT22;12936;52.006;4.350;2023-07-08T01:06:26;24.40;99.90
24860;DHT22;12936;52.006;4.350;2023-07-08T01:09:02;24.40;99.90
24860;DHT22;12936;52.006;4.350;2023-07-08T01:11:40;24.40;99.90
24860;DHT22;12936;52.006;4.350;2023-07-08T01:14:12;24.40;99.90
24860;DHT22;12936;52.006;4.350;2023-07-08T01:16:46;24.30;99.90
24860;DHT22;12936;52.006;4.350;2023-07-08T01:19:20;24.30;99.90
24860;DHT22;12936;52.006;4.350;2023-07-08T01:22:09;24.30;99.90
24860;DHT22;12936;52.006;4.350;2023-07-08T01:24:41;24.30;99.90
24860;DHT22;12936;52.006;4.350;2023-07-08T01:27:16;24.20;99.90
24860;DHT22;12936;52.006;4.350;2023-07-08T01:29:49;24.20;99.90
24860;DHT22;12936;52.006;4.350;2023-07-08T01:32:54;24.20;99.90
24860;DHT22;12936;52.006;4.350;2023-07-08T01:35:54;24.20;99.90
24860;DHT22;12936;52.006;4.350;2023-07-08T01:38:42;24.10;99.90
24860;DHT22;12936;52.006;4.350;2023-07-08T01:41:13;24.10;99.90
24860;DHT22;12936;52.006;4.350;2023-07-08T01:44:21;24.10;99.90
24860;DHT22;12936;52.006;4.350;2023-07-08T01:47:19;24.10;99.90
24860;DHT22;12936;52.006;4.350;2023-07-08T01:49:50;24.00;99.90
24860;DHT22;12936;52.006;4.350;2023-07-08T01:52:29;24.00;99.90
24860;DHT22;12936;52.006;4.350;2023-07-08T01:55:27;23.90;99.90
24860;DHT22;12936;52.006;4.350;2023-07-08T01:58:22;23.90;99.90
24860;DHT22;12936;52.006;4.350;2023-07-08T02:01:17;23.90;99.90
24860;DHT22;12936;52.006;4.350;2023-07-08T02:03:47;23.80;99.90
24860;DHT22;12936;52.006;4.350;2023-07-08T02:06:21;23.80;99.90
24860;DHT22;12936;52.006;4.350;2023-07-08T02:09:03;23.80;99.90
24860;DHT22;12936;52.006;4.350;2023-07-08T02:12:01;23.80;99.90
24860;DHT22;12936;52.006;4.350;2023-07-08T02:14:32;23.70;99.90
24860;DHT22;12936;52.006;4.350;2023-07-08T02:17:02;23.70;99.90
24860;DHT22;12936;52.006;4.350;2023-07-08T02:19:34;23.70;99.90
24860;DHT22;12936;52.006;4.350;2023-07-08T02:22:28;23.60;99.90
24860;DHT22;12936;52.006;4.350;2023-07-08T02:24:59;23.60;99.90
24860;DHT22;12936;52.006;4.350;2023-07-08T02:27:36;23.60;99.90
24860;DHT22;12936;52.006;4.350;2023-07-08T02:30:06;23.60;99.90
24860;DHT22;12936;52.006;4.350;2023-07-08T02:32:38;23.50;99.90
24860;DHT22;12936;52.006;4.350;2023-07-08T02:35:40;23.50;99.90
24860;DHT22;12936;52.006;4.350;2023-07-08T02:38:13;23.50;99.90
24860;DHT22;12936;52.006;4.350;2023-07-08T02:40:46;23.50;99.90
24860;DHT22;12936;52.006;4.350;2023-07-08T02:43:22;23.40;99.90
24860;DHT22;12936;52.006;4.350;2023-07-08T02:45:55;23.40;99.90
24860;DHT22;12936;52.006;4.350;2023-07-08T02:48:45;23.40;99.90
24860;DHT22;12936;52.006;4.350;2023-07-08T02:51:21;23.30;99.90
24860;DHT22;12936;52.006;4.350;2023-07-08T02:53:54;23.30;99.90
24860;DHT22;12936;52.006;4.350;2023-07-08T02:56:46;23.30;99.90
24860;DHT22;12936;52.006;4.350;2023-07-08T02:59:19;23.20;99.90
24860;DHT22;12936;52.006;4.350;2023-07-08T03:02:31;23.20;99.90
24860;DHT22;12936;52.006;4.350;2023-07-08T03:05:08;23.20;99.90
24860;DHT22;12936;52.006;4.350;2023-07-08T03:07:40;23.20;99.90
24860;DHT22;12936;52.006;4.350;2023-07-08T03:10:23;23.10;99.90
24860;DHT22;12936;52.006;4.350;2023-07-08T03:13:17;23.10;99.90
24860;DHT22;12936;52.006;4.350;2023-07-08T03:15:49;23.10;99.90
24860;DHT22;12936;52.006;4.350;2023-07-08T03:18:45;23.10;99.90
24860;DHT22;12936;52.006;4.350;2023-07-08T03:21:26;23.00;99.90
24860;DHT22;12936;52.006;4.350;2023-07-08T03:24:00;23.00;99.90
24860;DHT22;12936;52.006;4.350;2023-07-08T03:26:32;22.90;99.90
24860;DHT22;12936;52.006;4.350;2023-07-08T03:29:10;22.90;99.90
24860;DHT22;12936;52.006;4.350;2023-07-08T03:31:45;22.90;99.90
24860;DHT22;12936;52.006;4.350;2023-07-08T03:34:17;22.90;99.90
24860;DHT22;12936;52.006;4.350;2023-07-08T03:37:06;22.90;99.90
24860;DHT22;12936;52.006;4.350;2023-07-08T03:39:56;22.90;99.90
24860;DHT22;12936;52.006;4.350;2023-07-08T03:42:28;22.80;99.90
24860;DHT22;12936;52.006;4.350;2023-07-08T03:45:12;22.80;99.90
24860;DHT22;12936;52.006;4.350;2023-07-08T03:47:47;22.80;99.90
24860;DHT22;12936;52.006;4.350;2023-07-08T03:50:22;22.80;99.90
24860;DHT22;12936;52.006;4.350;2023-07-08T03:53:00;22.80;99.90
24860;DHT22;12936;52.006;4.350;2023-07-08T03:55:49;22.80;99.90
24860;DHT22;12936;52.006;4.350;2023-07-08T03:58:44;22.70;99.90
24860;DHT22;12936;52.006;4.350;2023-07-08T04:01:16;22.70;99.90
24860;DHT22;12936;52.006;4.350;2023-07-08T04:03:49;22.60;99.90
24860;DHT22;12936;52.006;4.350;2023-07-08T04:06:22;22.70;99.90
24860;DHT22;12936;52.006;4.350;2023-07-08T04:08:55;22.60;99.90
24860;DHT22;12936;52.006;4.350;2023-07-08T04:11:31;22.60;99.90
24860;DHT22;12936;52.006;4.350;2023-07-08T04:14:22;22.60;99.90
24860;DHT22;12936;52.006;4.350;2023-07-08T04:17:14;22.60;99.90
24860;DHT22;12936;52.006;4.350;2023-07-08T04:19:55;22.60;99.90
24860;DHT22;12936;52.006;4.350;2023-07-08T04:22:49;22.60;99.90
24860;DHT22;12936;52.006;4.350;2023-07-08T04:25:22;22.50;99.90
24860;DHT22;12936;52.006;4.350;2023-07-08T04:28:12;22.50;99.90
24860;DHT22;12936;52.006;4.350;2023-07-08T04:31:02;22.50;99.90
24860;DHT22;12936;52.006;4.350;2023-07-08T04:33:36;22.50;99.90
24860;DHT22;12936;52.006;4.350;2023-07-08T04:36:29;22.50;99.90
24860;DHT22;12936;52.006;4.350;2023-07-08T04:39:04;22.50;99.90
24860;DHT22;12936;52.006;4.350;2023-07-08T04:41:44;22.50;99.90
24860;DHT22;12936;52.006;4.350;2023-07-08T04:44:19;22.50;99.90
24860;DHT22;12936;52.006;4.350;2023-07-08T04:47:10;22.50;99.90
24860;DHT22;12936;52.006;4.350;2023-07-08T04:49:46;22.50;99.90
24860;DHT22;12936;52.006;4.350;2023-07-08T04:52:15;22.50;99.90
24860;DHT22;12936;52.006;4.350;2023-07-08T04:54:43;22.50;99.90
24860;DHT22;12936;52.006;4.350;2023-07-08T04:57:11;22.50;99.90
24860;DHT22;12936;52.006;4.350;2023-07-08T04:59:39;22.50;99.90
24860;DHT22;12936;52.006;4.350;2023-07-08T05:02:08;22.50;99.90
24860;DHT22;12936;52.006;4.350;2023-07-08T05:04:36;22.50;99.90
24860;DHT22;12936;52.006;4.350;2023-07-08T05:07:04;22.50;99.90
24860;DHT22;12936;52.006;4.350;2023-07-08T05:09:34;22.60;99.90
24860;DHT22;12936;52.006;4.350;2023-07-08T05:12:03;22.50;99.90
24860;DHT22;12936;52.006;4.350;2023-07-08T05:14:31;22.60;99.90
24860;DHT22;12936;52.006;4.350;2023-07-08T05:16:59;22.50;99.90
24860;DHT22;12936;52.006;4.350;2023-07-08T05:19:27;22.50;99.90
24860;DHT22;12936;52.006;4.350;2023-07-08T05:21:55;22.50;99.90
24860;DHT22;12936;52.006;4.350;2023-07-08T05:24:23;22.50;99.90
24860;DHT22;12936;52.006;4.350;2023-07-08T05:26:53;22.50;99.90
24860;DHT22;12936;52.006;4.350;2023-07-08T05:29:21;22.40;99.90
24860;DHT22;12936;52.006;4.350;2023-07-08T05:31:49;22.40;99.90
24860;DHT22;12936;52.006;4.350;2023-07-08T05:34:17;22.40;99.90
24860;DHT22;12936;52.006;4.350;2023-07-08T05:36:45;22.40;99.90
24860;DHT22;12936;52.006;4.350;2023-07-08T05:39:13;22.30;99.90
24860;DHT22;12936;52.006;4.350;2023-07-08T05:41:41;22.30;99.90
24860;DHT22;12936;52.006;4.350;2023-07-08T05:44:11;22.40;99.90
24860;DHT22;12936;52.006;4.350;2023-07-08T05:46:39;22.40;99.90
24860;DHT22;12936;52.006;4.350;2023-07-08T05:49:07;22.40;99.90
24860;DHT22;12936;52.006;4.350;2023-07-08T05:51:36;22.40;99.90
24860;DHT22;12936;52.006;4.350;2023-07-08T05:54:05;22.40;99.90
24860;DHT22;12936;52.006;4.350;2023-07-08T05:56:33;22.40;99.90
24860;DHT22;12936;52.006;4.350;2023-07-08T05:59:01;22.40;99.90
24860;DHT22;12936;52.006;4.350;2023-07-08T06:01:31;22.40;99.90
24860;DHT22;12936;52.006;4.350;2023-07-08T06:03:59;22.40;99.90
24860;DHT22;12936;52.006;4.350;2023-07-08T06:06:28;22.40;99.90
24860;DHT22;12936;52.006;4.350;2023-07-08T06:08:56;22.40;99.90
24860;DHT22;12936;52.006;4.350;2023-07-08T06:11:24;22.40;99.90
24860;DHT22;12936;52.006;4.350;2023-07-08T06:13:52;22.40;99.90
24860;DHT22;12936;52.006;4.350;2023-07-08T06:16:21;22.50;99.90
24860;DHT22;12936;52.006;4.350;2023-07-08T06:18:56;22.50;99.90
24860;DHT22;12936;52.006;4.350;2023-07-08T06:21:24;22.50;99.90
24860;DHT22;12936;52.006;4.350;2023-07-08T06:23:52;22.50;99.90
24860;DHT22;12936;52.006;4.350;2023-07-08T06:26:20;22.50;99.90
24860;DHT22;12936;52.006;4.350;2023-07-08T06:28:48;22.60;99.90
24860;DHT22;12936;52.006;4.350;2023-07-08T06:31:16;22.60;99.90
24860;DHT22;12936;52.006;4.350;2023-07-08T06:33:45;22.60;99.90
24860;DHT22;12936;52.006;4.350;2023-07-08T06:36:14;22.60;99.90
24860;DHT22;12936;52.006;4.350;2023-07-08T06:38:42;22.60;99.90
24860;DHT22;12936;52.006;4.350;2023-07-08T06:41:10;22.60;99.90
24860;DHT22;12936;52.006;4.350;2023-07-08T06:43:38;22.60;99.90
24860;DHT22;12936;52.006;4.350;2023-07-08T06:46:06;22.70;99.90
24860;DHT22;12936;52.006;4.350;2023-07-08T06:48:34;22.70;99.90
24860;DHT22;12936;52.006;4.350;2023-07-08T06:51:02;22.80;99.90
24860;DHT22;12936;52.006;4.350;2023-07-08T06:53:32;22.80;99.90
24860;DHT22;12936;52.006;4.350;2023-07-08T06:56:00;22.80;99.90
24860;DHT22;12936;52.006;4.350;2023-07-08T06:58:29;22.80;99.90
24860;DHT22;12936;52.006;4.350;2023-07-08T07:00:57;22.80;99.90
24860;DHT22;12936;52.006;4.350;2023-07-08T07:03:25;22.80;99.90
24860;DHT22;12936;52.006;4.350;2023-07-08T07:05:54;22.90;99.90
24860;DHT22;12936;52.006;4.350;2023-07-08T07:08:22;22.90;99.90
24860;DHT22;12936;52.006;4.350;2023-07-08T07:10:51;22.90;99.90
24860;DHT22;12936;52.006;4.350;2023-07-08T07:13:19;23.00;99.90
24860;DHT22;12936;52.006;4.350;2023-07-08T07:15:48;23.10;99.90
24860;DHT22;12936;52.006;4.350;2023-07-08T07:18:22;23.10;99.90
24860;DHT22;12936;52.006;4.350;2023-07-08T07:20:53;23.20;99.90
24860;DHT22;12936;52.006;4.350;2023-07-08T07:23:22;23.20;99.90
24860;DHT22;12936;52.006;4.350;2023-07-08T07:25:52;23.30;99.90
24860;DHT22;12936;52.006;4.350;2023-07-08T07:28:20;23.30;99.90
24860;DHT22;12936;52.006;4.350;2023-07-08T07:30:56;23.40;99.90
24860;DHT22;12936;52.006;4.350;2023-07-08T07:33:25;23.40;99.90
24860;DHT22;12936;52.006;4.350;2023-07-08T07:35:53;23.40;99.90
24860;DHT22;12936;52.006;4.350;2023-07-08T07:38:21;23.40;99.90
24860;DHT22;12936;52.006;4.350;2023-07-08T07:40:53;23.40;99.90
24860;DHT22;12936;52.006;4.350;2023-07-08T07:43:22;23.50;99.90
24860;DHT22;12936;52.006;4.350;2023-07-08T07:45:51;23.50;99.90
24860;DHT22;12936;52.006;4.350;2023-07-08T07:48:19;23.50;99.90
24860;DHT22;12936;52.006;4.350;2023-07-08T07:50:48;23.60;99.90
24860;DHT22;12936;52.006;4.350;2023-07-08T07:53:18;23.60;99.90
24860;DHT22;12936;52.006;4.350;2023-07-08T07:55:46;23.70;99.90
24860;DHT22;12936;52.006;4.350;2023-07-08T07:58:15;23.70;99.90
24860;DHT22;12936;52.006;4.350;2023-07-08T08:00:43;23.70;99.90
24860;DHT22;12936;52.006;4.350;2023-07-08T08:03:12;23.70;99.90
24860;DHT22;12936;52.006;4.350;2023-07-08T08:05:45;23.80;99.90
24860;DHT22;12936;52.006;4.350;2023-07-08T08:08:13;23.90;99.90
24860;DHT22;12936;52.006;4.350;2023-07-08T08:10:42;23.90;99.90
24860;DHT22;12936;52.006;4.350;2023-07-08T08:13:10;24.00;99.90
24860;DHT22;12936;52.006;4.350;2023-07-08T08:15:40;24.00;99.90
24860;DHT22;12936;52.006;4.350;2023-07-08T08:18:08;24.10;99.90
24860;DHT22;12936;52.006;4.350;2023-07-08T08:20:36;24.10;99.90
24860;DHT22;12936;52.006;4.350;2023-07-08T08:23:06;24.20;99.90
24860;DHT22;12936;52.006;4.350;2023-07-08T08:25:34;24.20;99.90
24860;DHT22;12936;52.006;4.350;2023-07-08T08:28:02;24.30;99.90
24860;DHT22;12936;52.006;4.350;2023-07-08T08:30:32;24.40;99.90
24860;DHT22;12936;52.006;4.350;2023-07-08T08:33:01;24.40;99.90
24860;DHT22;12936;52.006;4.350;2023-07-08T08:35:30;24.50;99.90
24860;DHT22;12936;52.006;4.350;2023-07-08T08:37:58;24.50;99.90
24860;DHT22;12936;52.006;4.350;2023-07-08T08:40:26;24.60;99.90
24860;DHT22;12936;52.006;4.350;2023-07-08T08:42:58;24.70;99.90
24860;DHT22;12936;52.006;4.350;2023-07-08T08:45:29;24.70;99.90
24860;DHT22;12936;52.006;4.350;2023-07-08T08:48:04;24.70;99.90
24860;DHT22;12936;52.006;4.350;2023-07-08T08:50:39;24.80;99.90
24860;DHT22;12936;52.006;4.350;2023-07-08T08:53:12;24.80;99.90
24860;DHT22;12936;52.006;4.350;2023-07-08T08:55:41;24.90;99.90
24860;DHT22;12936;52.006;4.350;2023-07-08T08:58:23;25.00;99.90
24860;DHT22;12936;52.006;4.350;2023-07-08T09:00:58;25.00;99.90
24860;DHT22;12936;52.006;4.350;2023-07-08T09:03:36;25.10;99.90
24860;DHT22;12936;52.006;4.350;2023-07-08T09:06:17;25.10;99.90
24860;DHT22;12936;52.006;4.350;2023-07-08T09:08:48;25.20;99.90
24860;DHT22;12936;52.006;4.350;2023-07-08T09:11:40;25.20;99.90
24860;DHT22;12936;52.006;4.350;2023-07-08T09:14:16;25.30;99.90
24860;DHT22;12936;52.006;4.350;2023-07-08T09:16:51;25.30;99.90
24860;DHT22;12936;52.006;4.350;2023-07-08T09:19:26;25.40;99.90
24860;DHT22;12936;52.006;4.350;2023-07-08T09:22:01;25.40;99.90
24860;DHT22;12936;52.006;4.350;2023-07-08T09:24:34;25.50;99.90
24860;DHT22;12936;52.006;4.350;2023-07-08T09:27:05;25.60;99.90
24860;DHT22;12936;52.006;4.350;2023-07-08T09:29:33;25.60;99.90
24860;DHT22;12936;52.006;4.350;2023-07-08T09:32:13;25.70;99.90
24860;DHT22;12936;52.006;4.350;2023-07-08T09:34:46;25.80;99.90
24860;DHT22;12936;52.006;4.350;2023-07-08T09:37:26;25.80;99.90
24860;DHT22;12936;52.006;4.350;2023-07-08T09:39:56;25.80;99.90
24860;DHT22;12936;52.006;4.350;2023-07-08T09:42:28;25.90;99.90
24860;DHT22;12936;52.006;4.350;2023-07-08T09:44:58;25.90;99.90
24860;DHT22;12936;52.006;4.350;2023-07-08T09:47:30;26.00;99.90
24860;DHT22;12936;52.006;4.350;2023-07-08T09:50:03;26.10;99.90
24860;DHT22;12936;52.006;4.350;2023-07-08T09:52:32;26.20;99.90
24860;DHT22;12936;52.006;4.350;2023-07-08T09:55:00;26.20;99.90
24860;DHT22;12936;52.006;4.350;2023-07-08T09:57:31;26.30;99.90
24860;DHT22;12936;52.006;4.350;2023-07-08T10:00:03;26.30;99.90
24860;DHT22;12936;52.006;4.350;2023-07-08T10:02:40;26.40;99.90
24860;DHT22;12936;52.006;4.350;2023-07-08T10:05:16;26.50;99.90
24860;DHT22;12936;52.006;4.350;2023-07-08T10:07:46;26.50;99.90
24860;DHT22;12936;52.006;4.350;2023-07-08T10:10:18;26.60;99.90
24860;DHT22;12936;52.006;4.350;2023-07-08T10:12:55;26.60;99.90
24860;DHT22;12936;52.006;4.350;2023-07-08T10:15:28;26.60;99.90
24860;DHT22;12936;52.006;4.350;2023-07-08T10:17:58;26.70;99.90
24860;DHT22;12936;52.006;4.350;2023-07-08T10:20:37;26.80;99.90
24860;DHT22;12936;52.006;4.350;2023-07-08T10:23:16;26.80;99.90
24860;DHT22;12936;52.006;4.350;2023-07-08T10:25:50;27.00;99.90
24860;DHT22;12936;52.006;4.350;2023-07-08T10:28:31;27.00;99.90
24860;DHT22;12936;52.006;4.350;2023-07-08T10:31:11;27.00;99.90
24860;DHT22;12936;52.006;4.350;2023-07-08T10:33:51;27.10;99.90
24860;DHT22;12936;52.006;4.350;2023-07-08T10:36:28;27.20;99.90
24860;DHT22;12936;52.006;4.350;2023-07-08T10:42:03;27.30;99.90
24860;DHT22;12936;52.006;4.350;2023-07-08T10:44:39;27.40;99.90
24860;DHT22;12936;52.006;4.350;2023-07-08T10:47:22;27.50;99.90
24860;DHT22;12936;52.006;4.350;2023-07-08T10:49:59;27.50;99.90
24860;DHT22;12936;52.006;4.350;2023-07-08T10:52:44;27.60;99.90
24860;DHT22;12936;52.006;4.350;2023-07-08T10:55:26;27.60;99.90
24860;DHT22;12936;52.006;4.350;2023-07-08T10:58:13;27.70;99.90
24860;DHT22;12936;52.006;4.350;2023-07-08T11:00:51;27.80;99.90
24860;DHT22;12936;52.006;4.350;2023-07-08T11:04:05;27.80;99.90
24860;DHT22;12936;52.006;4.350;2023-07-08T11:06:45;27.90;99.90
24860;DHT22;12936;52.006;4.350;2023-07-08T11:09:21;27.90;99.90
24860;DHT22;12936;52.006;4.350;2023-07-08T11:11:55;28.00;99.90
24860;DHT22;12936;52.006;4.350;2023-07-08T11:14:27;28.10;99.90
24860;DHT22;12936;52.006;4.350;2023-07-08T11:17:05;28.20;99.90
24860;DHT22;12936;52.006;4.350;2023-07-08T11:19:40;28.20;99.90
24860;DHT22;12936;52.006;4.350;2023-07-08T11:22:11;28.30;99.90
24860;DHT22;12936;52.006;4.350;2023-07-08T11:24:44;28.30;99.90
24860;DHT22;12936;52.006;4.350;2023-07-08T11:27:16;28.40;99.90
24860;DHT22;12936;52.006;4.350;2023-07-08T11:29:57;28.40;99.90
24860;DHT22;12936;52.006;4.350;2023-07-08T11:32:30;28.50;99.90
24860;DHT22;12936;52.006;4.350;2023-07-08T11:35:02;28.60;99.90
24860;DHT22;12936;52.006;4.350;2023-07-08T11:37:33;28.60;99.90
24860;DHT22;12936;52.006;4.350;2023-07-08T11:40:13;28.60;99.90
24860;DHT22;12936;52.006;4.350;2023-07-08T11:42:48;28.70;99.90
24860;DHT22;12936;52.006;4.350;2023-07-08T11:45:30;28.70;99.90
24860;DHT22;12936;52.006;4.350;2023-07-08T11:48:06;28.70;99.90
24860;DHT22;12936;52.006;4.350;2023-07-08T11:50:37;28.70;99.90
24860;DHT22;12936;52.006;4.350;2023-07-08T11:53:08;28.80;99.90
24860;DHT22;12936;52.006;4.350;2023-07-08T11:58:26;28.90;99.90
24860;DHT22;12936;52.006;4.350;2023-07-08T12:00:58;29.00;99.90
24860;DHT22;12936;52.006;4.350;2023-07-08T12:03:34;29.10;99.90
24860;DHT22;12936;52.006;4.350;2023-07-08T12:06:04;29.10;99.90
24860;DHT22;12936;52.006;4.350;2023-07-08T12:08:52;29.20;99.90
24860;DHT22;12936;52.006;4.350;2023-07-08T12:11:34;29.30;99.90
24860;DHT22;12936;52.006;4.350;2023-07-08T12:14:04;29.40;99.90
24860;DHT22;12936;52.006;4.350;2023-07-08T12:16:34;29.40;99.90
24860;DHT22;12936;52.006;4.350;2023-07-08T12:19:05;29.50;99.90
24860;DHT22;12936;52.006;4.350;2023-07-08T12:21:35;29.60;99.90
24860;DHT22;12936;52.006;4.350;2023-07-08T12:24:03;29.70;99.90
24860;DHT22;12936;52.006;4.350;2023-07-08T12:26:34;29.70;99.90
24860;DHT22;12936;52.006;4.350;2023-07-08T12:29:02;29.80;99.90
24860;DHT22;12936;52.006;4.350;2023-07-08T12:31:30;29.90;99.90
24860;DHT22;12936;52.006;4.350;2023-07-08T12:33:59;29.90;99.90
24860;DHT22;12936;52.006;4.350;2023-07-08T12:36:30;30.00;99.90
24860;DHT22;12936;52.006;4.350;2023-07-08T12:38:59;30.10;99.90
24860;DHT22;12936;52.006;4.350;2023-07-08T12:41:31;30.20;99.90
24860;DHT22;12936;52.006;4.350;2023-07-08T12:44:01;30.30;99.90
24860;DHT22;12936;52.006;4.350;2023-07-08T12:46:30;30.30;99.90
24860;DHT22;12936;52.006;4.350;2023-07-08T12:49:00;30.30;99.90
24860;DHT22;12936;52.006;4.350;2023-07-08T12:51:28;30.30;99.90
24860;DHT22;12936;52.006;4.350;2023-07-08T12:53:56;30.50;99.90
24860;DHT22;12936;52.006;4.350;2023-07-08T12:56:25;30.50;99.90
24860;DHT22;12936;52.006;4.350;2023-07-08T12:58:56;30.60;99.90
24860;DHT22;12936;52.006;4.350;2023-07-08T13:01:30;30.70;99.90
24860;DHT22;12936;52.006;4.350;2023-07-08T13:04:00;30.80;99.90
24860;DHT22;12936;52.006;4.350;2023-07-08T13:06:31;30.80;99.90
24860;DHT22;12936;52.006;4.350;2023-07-08T13:09:04;30.90;99.90
24860;DHT22;12936;52.006;4.350;2023-07-08T13:11:34;31.00;99.90
24860;DHT22;12936;52.006;4.350;2023-07-08T13:14:05;31.10;99.90
24860;DHT22;12936;52.006;4.350;2023-07-08T13:16:36;31.10;99.90
24860;DHT22;12936;52.006;4.350;2023-07-08T13:19:04;31.20;99.90
24860;DHT22;12936;52.006;4.350;2023-07-08T13:21:32;31.30;99.90
24860;DHT22;12936;52.006;4.350;2023-07-08T13:24:01;31.40;99.90
24860;DHT22;12936;52.006;4.350;2023-07-08T13:26:30;31.50;99.90
24860;DHT22;12936;52.006;4.350;2023-07-08T13:29:06;31.60;99.90
24860;DHT22;12936;52.006;4.350;2023-07-08T13:31:39;31.70;99.90
24860;DHT22;12936;52.006;4.350;2023-07-08T13:34:09;31.90;99.90
24860;DHT22;12936;52.006;4.350;2023-07-08T13:36:39;31.90;99.90
24860;DHT22;12936;52.006;4.350;2023-07-08T13:39:13;32.00;99.90
24860;DHT22;12936;52.006;4.350;2023-07-08T13:41:43;32.10;99.90
24860;DHT22;12936;52.006;4.350;2023-07-08T13:44:12;32.10;99.90
24860;DHT22;12936;52.006;4.350;2023-07-08T13:46:49;32.10;99.90
24860;DHT22;12936;52.006;4.350;2023-07-08T13:49:22;32.10;99.90
24860;DHT22;12936;52.006;4.350;2023-07-08T13:51:51;32.20;99.90
24860;DHT22;12936;52.006;4.350;2023-07-08T13:54:21;32.30;99.90
24860;DHT22;12936;52.006;4.350;2023-07-08T13:56:50;32.30;99.90
24860;DHT22;12936;52.006;4.350;2023-07-08T13:59:21;32.40;99.90
24860;DHT22;12936;52.006;4.350;2023-07-08T14:01:53;32.50;99.90
24860;DHT22;12936;52.006;4.350;2023-07-08T14:04:28;32.50;99.90
24860;DHT22;12936;52.006;4.350;2023-07-08T14:06:56;32.70;99.90
24860;DHT22;12936;52.006;4.350;2023-07-08T14:09:25;32.70;99.90
24860;DHT22;12936;52.006;4.350;2023-07-08T14:11:53;32.70;99.90
24860;DHT22;12936;52.006;4.350;2023-07-08T14:14:21;32.80;99.90
24860;DHT22;12936;52.006;4.350;2023-07-08T14:16:52;33.00;99.90
24860;DHT22;12936;52.006;4.350;2023-07-08T14:19:23;33.00;99.90
24860;DHT22;12936;52.006;4.350;2023-07-08T14:21:55;33.10;99.90
24860;DHT22;12936;52.006;4.350;2023-07-08T14:24:24;33.20;99.90
24860;DHT22;12936;52.006;4.350;2023-07-08T14:26:52;33.30;99.90
24860;DHT22;12936;52.006;4.350;2023-07-08T14:29:21;33.30;99.90
24860;DHT22;12936;52.006;4.350;2023-07-08T14:31:49;33.40;99.90
24860;DHT22;12936;52.006;4.350;2023-07-08T14:34:23;33.40;99.90
24860;DHT22;12936;52.006;4.350;2023-07-08T14:36:52;33.30;99.90
24860;DHT22;12936;52.006;4.350;2023-07-08T14:39:20;33.40;99.90
24860;DHT22;12936;52.006;4.350;2023-07-08T14:41:49;33.30;99.90
24860;DHT22;12936;52.006;4.350;2023-07-08T14:44:20;33.20;99.90
24860;DHT22;12936;52.006;4.350;2023-07-08T14:46:49;33.10;99.90
24860;DHT22;12936;52.006;4.350;2023-07-08T14:49:20;32.90;99.90
24860;DHT22;12936;52.006;4.350;2023-07-08T14:51:49;32.90;99.90
24860;DHT22;12936;52.006;4.350;2023-07-08T14:54:18;32.80;99.90
24860;DHT22;12936;52.006;4.350;2023-07-08T14:56:46;32.80;99.90
24860;DHT22;12936;52.006;4.350;2023-07-08T14:59:18;32.80;99.90
24860;DHT22;12936;52.006;4.350;2023-07-08T15:01:47;32.70;99.90
24860;DHT22;12936;52.006;4.350;2023-07-08T15:04:17;32.70;99.90
24860;DHT22;12936;52.006;4.350;2023-07-08T15:06:47;32.50;99.90
24860;DHT22;12936;52.006;4.350;2023-07-08T15:09:15;32.20;99.90
24860;DHT22;12936;52.006;4.350;2023-07-08T15:11:45;31.90;99.90
24860;DHT22;12936;52.006;4.350;2023-07-08T15:14:19;31.90;99.90
24860;DHT22;12936;52.006;4.350;2023-07-08T15:16:48;31.80;99.90
24860;DHT22;12936;52.006;4.350;2023-07-08T15:19:17;31.80;99.90
24860;DHT22;12936;52.006;4.350;2023-07-08T15:21:47;31.80;99.90
24860;DHT22;12936;52.006;4.350;2023-07-08T15:24:16;31.60;99.90
24860;DHT22;12936;52.006;4.350;2023-07-08T15:26:46;31.40;99.90
24860;DHT22;12936;52.006;4.350;2023-07-08T15:29:17;31.40;99.90
24860;DHT22;12936;52.006;4.350;2023-07-08T15:31:46;31.40;99.90
24860;DHT22;12936;52.006;4.350;2023-07-08T15:34:15;31.40;99.90
24860;DHT22;12936;52.006;4.350;2023-07-08T15:36:44;31.40;99.90
24860;DHT22;12936;52.006;4.350;2023-07-08T15:39:13;31.40;99.90
24860;DHT22;12936;52.006;4.350;2023-07-08T15:41:42;31.30;99.90
24860;DHT22;12936;52.006;4.350;2023-07-08T15:44:12;31.30;99.90
24860;DHT22;12936;52.006;4.350;2023-07-08T15:46:42;31.30;99.90
24860;DHT22;12936;52.006;4.350;2023-07-08T15:49:14;31.20;99.90
24860;DHT22;12936;52.006;4.350;2023-07-08T15:51:43;31.20;99.90
24860;DHT22;12936;52.006;4.350;2023-07-08T15:54:18;31.10;99.90
24860;DHT22;12936;52.006;4.350;2023-07-08T15:56:47;31.10;99.90
24860;DHT22;12936;52.006;4.350;2023-07-08T15:59:19;31.10;99.90
24860;DHT22;12936;52.006;4.350;2023-07-08T16:01:49;31.00;99.90
24860;DHT22;12936;52.006;4.350;2023-07-08T16:04:23;31.00;99.90
24860;DHT22;12936;52.006;4.350;2023-07-08T16:06:51;31.00;99.90
24860;DHT22;12936;52.006;4.350;2023-07-08T16:09:21;31.00;99.90
24860;DHT22;12936;52.006;4.350;2023-07-08T16:11:49;30.90;99.90
24860;DHT22;12936;52.006;4.350;2023-07-08T16:14:18;31.00;99.90
24860;DHT22;12936;52.006;4.350;2023-07-08T16:16:46;31.00;99.90
24860;DHT22;12936;52.006;4.350;2023-07-08T16:19:15;31.00;99.90